Time;durP1;ratioP1;P1;durP2;ratioP2;P2;SDS_P1;SDS_P2;PMS_P1;PMS_P2;Temp;Humidity;BMP_temperature;BMP_pressure;BME280_temperature;BME280_humidity;BME280_pressure;Samples;Min_cycle;Max_cycle;Signal;HPM_P1;HPM_P2
2021/08/07 00:02:02;;;;;;;;;0.00;0.00;;;;;20.66;53.43;100156.09;4999695;28;45209;-76
2021/08/07 00:04:27;;;;;;;;;1.00;1.00;;;;;20.57;53.64;100142.44;4998508;28;45339;-76
2021/08/07 00:06:53;;;;;;;;;0.00;0.00;;;;;20.58;53.55;100150.47;4998791;28;45454;-76
2021/08/07 00:09:19;;;;;;;;;0.75;0.00;;;;;20.45;53.96;100123.50;4998374;28;46127;-77
2021/08/07 00:11:44;;;;;;;;;3.00;1.00;;;;;20.35;53.56;100115.28;4998456;28;48625;-77
2021/08/07 00:14:09;;;;;;;;;1.50;0.50;;;;;20.33;54.23;100113.66;4998473;28;45203;-76
2021/08/07 00:16:35;;;;;;;;;2.00;0.00;;;;;20.34;54.49;100129.81;4998686;28;45278;-76
2021/08/07 00:19:00;;;;;;;;;0.00;0.00;;;;;20.34;54.03;100121.66;4998101;28;45340;-76
2021/08/07 00:21:26;;;;;;;;;0.00;0.00;;;;;20.28;54.03;100113.19;4998414;28;48560;-76
2021/08/07 00:23:51;;;;;;;;;0.75;0.75;;;;;20.29;53.93;100121.19;5014680;28;45460;-76
2021/08/07 00:26:17;;;;;;;;;0.00;0.00;;;;;20.40;54.39;100131.16;4998417;28;45472;-76
2021/08/07 00:28:42;;;;;;;;;0.25;0.25;;;;;20.35;54.18;100127.97;4998008;28;45429;-77
2021/08/07 00:31:08;;;;;;;;;1.00;0.25;;;;;20.23;54.22;100113.59;4999485;28;45557;-76
2021/08/07 00:33:33;;;;;;;;;1.00;0.00;;;;;20.39;54.33;100142.97;4997091;28;45394;-76
2021/08/07 00:35:58;;;;;;;;;0.00;0.00;;;;;20.20;54.24;100104.84;4982100;28;45424;-76
2021/08/07 00:38:24;;;;;;;;;0.00;0.00;;;;;20.15;54.81;100111.50;4999397;28;45332;-76
2021/08/07 00:40:51;;;;;;;;;0.75;0.75;;;;;20.12;54.42;100100.91;4998193;28;47079;-76
2021/08/07 00:43:16;;;;;;;;;0.50;0.50;;;;;20.22;54.62;100125.41;4999217;28;45213;-76
2021/08/07 00:45:42;;;;;;;;;0.00;0.00;;;;;20.17;54.72;100112.25;4999720;28;45134;-76
2021/08/07 00:48:08;;;;;;;;;0.00;0.00;;;;;20.05;54.82;100093.44;4997942;28;45533;-76
2021/08/07 00:50:34;;;;;;;;;1.00;1.00;;;;;20.20;55.09;100123.81;4999155;28;46645;-76
2021/08/07 00:52:59;;;;;;;;;0.00;0.00;;;;;20.02;54.64;100101.81;4999392;28;45258;-76
2021/08/07 00:55:26;;;;;;;;;0.25;0.25;;;;;19.90;55.17;100077.47;4999465;28;45217;-77
2021/08/07 00:57:51;;;;;;;;;1.25;0.00;;;;;20.06;54.75;100105.97;4999200;28;45450;-76
2021/08/07 01:00:16;;;;;;;;;1.00;1.00;;;;;19.92;54.78;100086.31;4999364;28;45863;-76
2021/08/07 01:02:53;;;;;;;;;1.00;1.00;;;;;19.94;54.75;100094.31;4998795;28;45319;-77
2021/08/07 01:05:30;;;;;;;;;1.25;0.75;;;;;19.99;54.73;100090.22;4998079;28;45459;-77
2021/08/07 01:08:22;;;;;;;;;1.00;1.00;;;;;20.20;55.09;100119.25;4987912;28;45467;-76
2021/08/07 01:11:13;;;;;;;;;1.00;1.00;;;;;20.19;54.83;100122.94;4997454;28;46404;-76
2021/08/07 01:13:57;;;;;;;;;1.50;1.00;;;;;20.15;55.32;100119.63;4999108;28;45443;-76
2021/08/07 01:16:29;;;;;;;;;1.50;1.00;;;;;20.05;55.15;100112.41;5002648;28;45356;-76
2021/08/07 01:18:57;;;;;;;;;1.00;1.00;;;;;19.88;55.28;100078.56;5000679;28;45522;-76
2021/08/07 01:21:29;;;;;;;;;1.00;0.00;;;;;19.94;55.05;100083.47;5002245;28;45257;-76
2021/08/07 01:24:03;;;;;;;;;0.25;0.25;;;;;19.98;55.07;100104.78;4999333;28;45480;-76
2021/08/07 01:26:35;;;;;;;;;0.00;0.00;;;;;19.91;55.22;100097.28;5002484;28;45394;-76
2021/08/07 01:29:01;;;;;;;;;0.00;0.00;;;;;19.77;55.72;100074.88;4993677;28;45523;-76
2021/08/07 01:31:27;;;;;;;;;3.00;0.00;;;;;19.68;55.22;100059.38;5001077;28;46119;-76
2021/08/07 01:33:53;;;;;;;;;0.00;0.00;;;;;19.53;55.55;100039.81;5001858;28;45433;-76
2021/08/07 01:36:19;;;;;;;;;0.00;0.00;;;;;19.73;55.25;100073.41;5002374;28;45489;-76
2021/08/07 01:38:46;;;;;;;;;0.00;0.00;;;;;19.82;55.21;100073.66;5001055;28;45520;-76
2021/08/07 01:41:20;;;;;;;;;2.00;0.00;;;;;19.59;55.10;100042.00;5002124;28;46102;-76
2021/08/07 01:43:47;;;;;;;;;0.00;0.00;;;;;19.91;55.29;100095.44;4984466;28;45431;-76
2021/08/07 01:46:15;;;;;;;;;1.00;1.00;;;;;19.96;55.32;100106.75;5002258;28;45253;-77
2021/08/07 01:49:08;;;;;;;;;1.00;1.00;;;;;19.96;55.14;100103.16;5001951;28;45233;-76
2021/08/07 01:51:48;;;;;;;;;0.75;0.75;;;;;19.68;55.10;100061.19;5001552;28;45316;-76
2021/08/07 01:54:19;;;;;;;;;1.00;1.00;;;;;19.65;55.29;100054.19;5001726;28;45675;-77
2021/08/07 01:56:45;;;;;;;;;0.25;0.00;;;;;19.78;55.40;100076.63;5002349;28;45340;-76
2021/08/07 01:59:20;;;;;;;;;0.00;0.00;;;;;19.86;55.41;100094.06;5001804;28;45590;-76
2021/08/07 02:01:47;;;;;;;;;1.00;1.00;;;;;19.59;55.55;100054.69;5000622;28;48205;-76
2021/08/07 02:04:15;;;;;;;;;0.00;0.00;;;;;19.55;55.29;100043.25;5000118;28;45903;-77
2021/08/07 02:06:41;;;;;;;;;1.00;1.00;;;;;19.73;55.64;100080.63;5000873;28;45449;-76
2021/08/07 02:09:08;;;;;;;;;0.00;0.00;;;;;19.52;55.33;100058.88;5000259;28;45527;-77
2021/08/07 02:11:34;;;;;;;;;0.00;0.00;;;;;19.51;55.50;100046.31;5001774;28;46694;-77
2021/08/07 02:14:01;;;;;;;;;0.25;0.25;;;;;19.49;55.56;100048.31;5001654;28;45391;-76
2021/08/07 02:16:26;;;;;;;;;0.00;0.00;;;;;19.73;55.69;100089.63;5002049;28;45558;-77
2021/08/07 02:18:52;;;;;;;;;1.00;1.00;;;;;19.57;55.83;100072.91;5001203;28;45589;-76
2021/08/07 02:21:19;;;;;;;;;0.00;0.00;;;;;19.52;55.26;100058.88;5000192;28;47355;-77
2021/08/07 02:23:48;;;;;;;;;5.00;1.00;;;;;19.60;55.74;100076.22;5001319;28;45430;-77
2021/08/07 02:26:14;;;;;;;;;1.00;1.00;;;;;19.40;55.47;100037.22;5000761;28;45364;-76
2021/08/07 02:28:40;;;;;;;;;0.00;0.00;;;;;19.27;55.89;100020.25;5001121;28;45173;-77
2021/08/07 02:31:06;;;;;;;;;1.00;0.00;;;;;19.25;55.94;100014.97;5016646;28;46493;-76
2021/08/07 02:33:35;;;;;;;;;1.50;0.50;;;;;19.60;55.74;100073.53;4999982;28;45894;-76
2021/08/07 02:36:01;;;;;;;;;0.00;0.00;;;;;19.56;55.70;100063.94;5000363;28;45550;-76
2021/08/07 02:38:28;;;;;;;;;0.00;0.00;;;;;19.44;55.68;100049.56;5001403;28;45309;-77
2021/08/07 02:40:58;;;;;;;;;0.00;0.00;;;;;19.53;56.00;100066.88;5001250;28;46339;-77
2021/08/07 02:43:25;;;;;;;;;0.75;0.75;;;;;19.48;56.38;100060.09;5001126;28;45444;-77
2021/08/07 02:45:51;;;;;;;;;0.00;0.00;;;;;19.37;55.83;100034.78;5000125;28;45442;-77
2021/08/07 02:48:18;;;;;;;;;1.25;0.00;;;;;19.41;56.13;100047.09;5001108;28;45513;-76
2021/08/07 02:50:44;;;;;;;;;1.25;1.25;;;;;19.20;55.82;100010.94;4999628;28;45532;-77
2021/08/07 02:53:11;;;;;;;;;1.00;1.00;;;;;19.42;56.42;100043.38;4999558;28;45734;-77
2021/08/07 02:55:38;;;;;;;;;0.75;0.00;;;;;19.29;56.15;100014.72;4999875;28;45427;-74
2021/08/07 02:58:04;;;;;;;;;2.25;0.50;;;;;19.44;56.45;100037.84;4999663;28;45587;-75
2021/08/07 03:00:30;;;;;;;;;1.25;1.00;;;;;19.33;56.54;100014.38;4999591;28;45698;-76
2021/08/07 03:02:56;;;;;;;;;1.75;1.00;;;;;19.22;56.15;99998.13;5000908;28;45186;-76
2021/08/07 03:05:22;;;;;;;;;0.75;0.75;;;;;19.32;56.28;100023.47;4999525;28;45440;-76
2021/08/07 03:07:47;;;;;;;;;0.00;0.00;;;;;19.41;56.45;100029.97;4999730;28;45518;-76
2021/08/07 03:10:14;;;;;;;;;0.75;0.75;;;;;19.19;56.39;99993.81;5000573;28;46207;-76
2021/08/07 03:12:39;;;;;;;;;1.00;1.00;;;;;19.22;56.44;100011.66;5000900;28;45522;-75
2021/08/07 03:15:06;;;;;;;;;3.00;1.25;;;;;19.04;56.93;99977.00;4999928;28;45240;-76
2021/08/07 03:17:31;;;;;;;;;1.00;1.00;;;;;19.43;56.71;100037.00;5000955;28;45363;-76
2021/08/07 03:19:57;;;;;;;;;1.00;1.00;;;;;19.15;56.63;99999.63;5000229;28;46180;-76
2021/08/07 03:22:23;;;;;;;;;0.50;0.50;;;;;19.16;56.94;99994.09;5000015;28;45542;-76
2021/08/07 03:24:48;;;;;;;;;2.00;0.75;;;;;19.37;56.92;100028.50;5000622;28;45482;-75
2021/08/07 03:27:14;;;;;;;;;1.50;1.00;;;;;19.37;56.94;100026.66;5000358;28;45449;-76
2021/08/07 03:29:39;;;;;;;;;1.50;0.25;;;;;19.31;57.34;100012.75;4998943;28;47469;-75
2021/08/07 03:32:05;;;;;;;;;1.00;1.00;;;;;19.12;57.11;99987.19;4997118;28;45414;-75
2021/08/07 03:34:31;;;;;;;;;1.00;1.00;;;;;19.05;56.88;99973.28;5000470;28;45420;-76
2021/08/07 03:36:56;;;;;;;;;1.25;0.75;;;;;19.29;57.45;100010.16;5000136;28;45226;-76
2021/08/07 03:39:21;;;;;;;;;2.25;1.75;;;;;18.88;56.89;99935.94;4995852;28;47375;-75
2021/08/07 03:41:48;;;;;;;;;0.00;0.00;;;;;19.17;57.03;99984.97;4996777;28;45177;-76
2021/08/07 03:44:15;;;;;;;;;0.75;0.75;;;;;19.10;57.00;99972.94;5000590;28;45173;-76
2021/08/07 03:46:40;;;;;;;;;1.00;1.00;;;;;19.32;57.05;100014.50;5000146;28;45343;-76
2021/08/07 03:49:05;;;;;;;;;1.00;1.00;;;;;18.86;57.29;99936.06;5000067;28;46046;-76
2021/08/07 03:51:31;;;;;;;;;2.00;1.00;;;;;19.33;57.21;100011.66;5000001;28;45639;-76
2021/08/07 03:53:56;;;;;;;;;2.50;1.00;;;;;19.14;57.57;99978.94;5000307;28;45339;-76
2021/08/07 03:56:22;;;;;;;;;0.25;0.25;;;;;19.33;57.55;100008.06;5000155;28;45378;-76
2021/08/07 03:58:47;;;;;;;;;0.75;0.75;;;;;19.07;57.48;99970.47;5000241;28;46198;-76
2021/08/07 04:01:13;;;;;;;;;1.50;1.50;;;;;19.02;57.76;99965.41;5000036;28;45403;-76
2021/08/07 04:03:39;;;;;;;;;1.25;1.00;;;;;19.27;57.78;100000.47;5000042;28;45458;-76
2021/08/07 04:06:04;;;;;;;;;0.75;0.75;;;;;18.95;57.59;99947.13;4999989;28;45570;-76
2021/08/07 04:08:29;;;;;;;;;1.00;1.00;;;;;19.24;57.77;99991.63;5000164;28;45366;-76
2021/08/07 04:10:55;;;;;;;;;1.00;1.00;;;;;19.11;58.13;99969.25;4998320;28;45336;-76
2021/08/07 04:13:20;;;;;;;;;1.00;1.00;;;;;18.98;57.90;99955.84;4998926;28;45269;-75
2021/08/07 04:15:45;;;;;;;;;2.00;1.00;;;;;19.12;58.05;99987.19;4998512;28;45461;-76
2021/08/07 04:18:11;;;;;;;;;1.00;1.00;;;;;19.11;58.23;99981.91;4998607;28;48273;-76
2021/08/07 04:20:36;;;;;;;;;1.00;1.00;;;;;19.14;58.00;99992.47;4999707;28;45617;-76
2021/08/07 04:23:03;;;;;;;;;2.00;2.00;;;;;19.03;58.21;99982.53;4998287;28;45447;-76
2021/08/07 04:25:28;;;;;;;;;3.00;3.00;;;;;18.75;58.34;99940.56;4999857;28;46074;-76
2021/08/07 04:27:55;;;;;;;;;1.00;1.00;;;;;18.78;58.33;99943.03;4999578;28;46427;-75
2021/08/07 04:30:20;;;;;;;;;1.25;1.25;;;;;19.03;58.44;99983.38;4999947;28;45177;-76
2021/08/07 04:32:46;;;;;;;;;1.00;1.00;;;;;19.15;58.41;99986.94;4991937;28;45505;-76
2021/08/07 04:35:11;;;;;;;;;1.50;1.00;;;;;19.01;58.23;99965.53;4999528;28;45525;-76
2021/08/07 04:37:51;;;;;;;;;3.00;1.00;;;;;19.12;58.38;99976.38;4999660;28;45401;-76
2021/08/07 04:40:18;;;;;;;;;0.00;0.00;;;;;18.93;58.21;99958.06;4998387;28;45437;-76
2021/08/07 04:42:45;;;;;;;;;3.00;2.00;;;;;18.97;58.64;99953.25;4998482;28;45263;-75
2021/08/07 04:45:11;;;;;;;;;2.75;1.50;;;;;18.88;58.71;99946.75;4998323;28;45521;-76
2021/08/07 04:47:36;;;;;;;;;2.75;2.75;;;;;19.00;58.88;99961.97;4999444;28;46526;-76
2021/08/07 04:50:03;;;;;;;;;1.00;1.00;;;;;19.06;58.56;99974.13;5001228;28;45423;-75
2021/08/07 04:52:28;;;;;;;;;2.50;1.50;;;;;18.99;58.80;99965.66;4988793;28;45393;-75
2021/08/07 04:54:53;;;;;;;;;1.00;1.00;;;;;18.84;59.14;99940.72;5002814;28;45303;-76
2021/08/07 04:57:19;;;;;;;;;2.75;2.75;;;;;18.81;58.86;99929.25;5002265;28;46009;-76
2021/08/07 04:59:44;;;;;;;;;1.00;1.00;;;;;18.80;58.80;99933.78;5002462;28;45376;-76
2021/08/07 05:02:10;;;;;;;;;2.50;1.50;;;;;19.01;59.15;99962.84;5002479;28;45387;-76
2021/08/07 05:04:35;;;;;;;;;2.50;1.00;;;;;18.75;58.71;99927.03;5017519;28;45579;-76
2021/08/07 05:07:01;;;;;;;;;1.00;1.00;;;;;18.86;58.97;99946.88;5001385;28;48257;-75
2021/08/07 05:09:26;;;;;;;;;2.50;1.50;;;;;18.78;59.19;99935.78;5001346;28;45638;-76
2021/08/07 05:11:52;;;;;;;;;2.75;0.75;;;;;18.86;59.38;99954.09;5002234;28;45296;-76
2021/08/07 05:14:17;;;;;;;;;2.00;2.00;;;;;18.97;59.06;99973.03;5001280;28;45256;-75
2021/08/07 05:16:42;;;;;;;;;1.50;0.75;;;;;18.77;59.18;99930.47;5002569;28;45979;-76
2021/08/07 05:19:08;;;;;;;;;1.00;0.75;;;;;18.79;59.47;99939.31;5002413;28;45387;-76
2021/08/07 05:21:33;;;;;;;;;1.50;1.50;;;;;18.59;59.32;99911.16;5002372;28;45266;-76
2021/08/07 05:23:58;;;;;;;;;1.75;1.75;;;;;18.74;59.46;99934.28;5001020;28;45484;-76
2021/08/07 05:26:24;;;;;;;;;2.00;2.00;;;;;18.65;59.96;99921.50;5000925;28;46996;-76
2021/08/07 05:28:49;;;;;;;;;1.00;0.50;;;;;18.90;59.57;99952.88;5002060;28;45178;-75
2021/08/07 05:31:15;;;;;;;;;2.00;2.00;;;;;18.81;59.45;99940.94;5002296;28;45316;-76
2021/08/07 05:33:40;;;;;;;;;4.00;1.75;;;;;18.82;59.70;99934.53;4995311;28;45220;-75
2021/08/07 05:36:05;;;;;;;;;5.25;1.00;;;;;18.69;59.83;99917.56;5000839;28;47341;-75
2021/08/07 05:38:31;;;;;;;;;3.00;2.00;;;;;18.79;59.78;99936.63;5002479;28;45617;-76
2021/08/07 05:40:56;;;;;;;;;1.00;1.00;;;;;18.62;59.90;99905.53;5002259;28;45358;-75
2021/08/07 05:43:22;;;;;;;;;1.25;1.00;;;;;18.75;60.20;99937.84;5000993;28;45542;-76
2021/08/07 05:45:47;;;;;;;;;2.00;2.00;;;;;18.77;60.27;99952.13;5000715;28;47087;-76
2021/08/07 05:48:12;;;;;;;;;1.00;1.00;;;;;18.68;60.07;99932.94;5000552;28;45269;-76
2021/08/07 05:50:38;;;;;;;;;1.00;1.00;;;;;18.84;59.97;99951.53;5000885;28;45422;-76
2021/08/07 05:53:04;;;;;;;;;2.00;2.00;;;;;18.59;59.93;99897.66;5000745;28;45971;-75
2021/08/07 05:55:29;;;;;;;;;1.50;1.50;;;;;18.62;60.37;99908.22;5001705;28;45395;-76
2021/08/07 05:57:54;;;;;;;;;2.00;2.00;;;;;18.57;60.79;99907.75;5002087;28;45324;-76
2021/08/07 06:00:20;;;;;;;;;2.00;2.00;;;;;18.66;60.67;99915.09;5000537;28;45390;-76
2021/08/07 06:02:45;;;;;;;;;1.25;1.25;;;;;18.82;60.51;99944.50;5016877;28;45342;-76
2021/08/07 06:05:10;;;;;;;;;2.00;2.00;;;;;18.59;60.32;99903.06;5000205;28;47674;-76
2021/08/07 06:07:36;;;;;;;;;2.50;1.00;;;;;18.61;60.69;99906.50;5001810;28;45402;-76
2021/08/07 06:10:01;;;;;;;;;1.50;1.50;;;;;18.85;60.58;99942.44;5000605;28;45304;-76
2021/08/07 06:12:27;;;;;;;;;1.25;1.25;;;;;18.67;61.13;99911.44;5001613;28;45397;-75
2021/08/07 06:14:52;;;;;;;;;1.00;1.00;;;;;18.60;60.65;99900.25;5001700;28;46437;-76
2021/08/07 06:17:17;;;;;;;;;1.75;1.00;;;;;18.64;61.10;99912.53;5001710;28;45296;-75
2021/08/07 06:19:43;;;;;;;;;1.00;1.00;;;;;18.60;60.97;99899.38;5001566;28;45384;-76
2021/08/07 06:22:08;;;;;;;;;1.75;1.50;;;;;18.82;61.08;99937.22;5001450;28;45432;-76
2021/08/07 06:24:33;;;;;;;;;4.00;3.00;;;;;18.93;60.97;99949.94;5001300;28;45525;-76
2021/08/07 06:26:59;;;;;;;;;1.00;1.00;;;;;18.97;60.94;99945.16;5000269;28;45174;-75
2021/08/07 06:29:24;;;;;;;;;2.25;1.50;;;;;18.81;61.14;99922.00;5001467;28;45297;-76
2021/08/07 06:31:50;;;;;;;;;2.00;2.00;;;;;18.83;60.96;99917.38;4997249;28;45268;-75
2021/08/07 06:34:15;;;;;;;;;4.00;1.75;;;;;18.80;61.04;99914.03;4995511;28;47086;-75
2021/08/07 06:36:41;;;;;;;;;1.00;1.00;;;;;18.70;61.02;99900.38;5000076;28;45371;-75
2021/08/07 06:39:06;;;;;;;;;1.00;1.00;;;;;19.02;60.98;99941.06;5000113;28;45502;-75
2021/08/07 06:41:32;;;;;;;;;1.75;1.00;;;;;18.83;61.57;99919.22;4999974;28;46054;-75
2021/08/07 06:43:58;;;;;;;;;1.00;1.00;;;;;18.77;60.95;99907.00;5000984;28;46415;-75
2021/08/07 06:46:23;;;;;;;;;1.50;1.00;;;;;18.83;61.10;99917.38;5001366;28;45373;-75
2021/08/07 06:48:51;;;;;;;;;1.25;1.00;;;;;18.80;61.14;99912.16;5001004;28;45456;-74
2021/08/07 06:51:16;;;;;;;;;3.00;2.00;;;;;18.55;61.11;99870.03;4999860;28;45705;-74
2021/08/07 06:53:42;;;;;;;;;1.50;1.00;;;;;18.65;61.11;99889.06;5000534;28;45509;-74
2021/08/07 06:56:08;;;;;;;;;2.25;2.00;;;;;18.79;61.48;99909.59;4998548;28;45491;-73
2021/08/07 06:58:33;;;;;;;;;1.50;1.00;;;;;18.85;61.36;99918.09;5001155;28;45141;-73
2021/08/07 07:00:58;;;;;;;;;4.00;1.50;;;;;18.89;61.26;99921.41;5000810;28;45308;-74
2021/08/07 07:03:24;;;;;;;;;1.50;0.50;;;;;18.95;61.55;99928.19;4999521;28;45546;-74
2021/08/07 07:05:49;;;;;;;;;1.00;1.00;;;;;18.98;61.01;99931.50;5000644;28;45253;-76
2021/08/07 07:08:14;;;;;;;;;1.00;1.00;;;;;18.81;61.54;99894.09;5000784;28;45184;-76
2021/08/07 07:10:40;;;;;;;;;1.25;1.00;;;;;18.89;61.10;99897.06;5000867;28;45145;-76
2021/08/07 07:13:06;;;;;;;;;1.00;1.00;;;;;18.94;61.42;99902.13;5000094;28;45480;-76
2021/08/07 07:15:32;;;;;;;;;4.50;3.00;;;;;18.91;61.39;99891.53;5000144;28;45292;-76
2021/08/07 07:17:58;;;;;;;;;2.50;2.00;;;;;19.00;61.62;99901.63;4999971;28;45359;-75
2021/08/07 07:20:24;;;;;;;;;1.75;1.50;;;;;19.05;61.48;99900.25;4996987;28;45677;-75
2021/08/07 07:22:50;;;;;;;;;1.50;1.00;;;;;19.24;61.68;99937.50;4999046;28;45486;-76
2021/08/07 07:25:16;;;;;;;;;1.00;1.00;;;;;19.28;61.22;99929.13;5014523;28;45527;-77
2021/08/07 07:27:42;;;;;;;;;2.75;2.00;;;;;19.30;61.38;99919.06;5000171;28;45414;-76
2021/08/07 07:30:08;;;;;;;;;3.25;1.50;;;;;19.35;61.27;99933.91;5000350;28;45328;-77
2021/08/07 07:32:34;;;;;;;;;1.25;1.00;;;;;19.35;61.17;99919.53;4989888;28;46195;-75
2021/08/07 07:35:00;;;;;;;;;2.50;1.50;;;;;19.34;61.62;99915.09;4997132;28;45408;-75
2021/08/07 07:37:26;;;;;;;;;1.00;1.00;;;;;19.40;61.16;99917.31;5000596;28;45311;-76
2021/08/07 07:39:52;;;;;;;;;2.25;0.50;;;;;19.45;61.79;99917.78;5000343;28;45415;-74
2021/08/07 07:42:17;;;;;;;;;1.00;1.00;;;;;19.46;61.70;99907.81;5000228;28;45310;-74
2021/08/07 07:44:43;;;;;;;;;1.00;1.00;;;;;19.50;61.62;99925.53;5000302;28;45347;-73
2021/08/07 07:47:09;;;;;;;;;1.00;1.00;;;;;19.51;61.39;99919.13;5000524;28;45570;-74
2021/08/07 07:49:34;;;;;;;;;1.00;1.00;;;;;19.48;61.70;99897.72;4999739;28;45374;-76
2021/08/07 07:51:59;;;;;;;;;2.00;2.00;;;;;19.53;61.35;99903.59;4999866;28;45364;-76
2021/08/07 07:54:25;;;;;;;;;2.00;2.00;;;;;19.54;61.12;99905.34;5000043;28;45356;-76
2021/08/07 07:56:50;;;;;;;;;2.00;2.00;;;;;19.55;61.36;99890.81;5000200;28;45427;-75
2021/08/07 07:59:15;;;;;;;;;2.00;2.00;;;;;19.60;61.37;99894.84;4999883;28;45495;-75
2021/08/07 08:01:41;;;;;;;;;3.00;1.75;;;;;19.65;61.17;99893.63;4999839;28;46102;-74
2021/08/07 08:04:07;;;;;;;;;4.00;1.75;;;;;19.71;61.35;99891.25;4999601;28;45271;-74
2021/08/07 08:06:32;;;;;;;;;2.00;1.00;;;;;19.76;60.92;99893.59;4998329;28;45154;-76
2021/08/07 08:08:57;;;;;;;;;2.25;1.50;;;;;19.81;60.68;99883.22;4991243;28;45480;-75
2021/08/07 08:11:23;;;;;;;;;2.00;2.00;;;;;19.85;60.79;99892.81;4995021;28;46019;-75
2021/08/07 08:13:48;;;;;;;;;0.50;0.25;;;;;19.85;60.29;99878.44;4989499;28;45846;-76
2021/08/07 08:16:13;;;;;;;;;2.00;2.00;;;;;19.86;60.32;99869.28;4996236;28;45852;-75
2021/08/07 08:18:39;;;;;;;;;2.00;2.00;;;;;19.94;60.52;99877.63;4995893;28;45503;-75
2021/08/07 08:21:05;;;;;;;;;1.25;1.25;;;;;19.94;60.47;99869.50;4995574;28;46166;-76
2021/08/07 08:23:30;;;;;;;;;1.50;1.50;;;;;20.00;60.51;99877.13;4994002;28;45362;-75
2021/08/07 08:25:56;;;;;;;;;1.75;1.00;;;;;19.94;60.34;99850.53;4999087;28;45858;-76
2021/08/07 08:28:21;;;;;;;;;1.00;1.00;;;;;19.99;59.83;99849.16;4998133;28;45408;-75
2021/08/07 08:30:47;;;;;;;;;1.00;1.00;;;;;19.89;60.53;99818.44;4999045;28;45514;-74
2021/08/07 08:33:13;;;;;;;;;1.50;1.50;;;;;20.04;60.35;99842.50;4995287;28;45617;-75
2021/08/07 08:35:38;;;;;;;;;3.25;1.50;;;;;20.24;60.16;99865.16;4999236;28;45514;-76
2021/08/07 08:38:03;;;;;;;;;3.00;2.00;;;;;20.14;59.82;99838.84;4981322;28;45926;-76
2021/08/07 08:40:29;;;;;;;;;1.50;0.25;;;;;20.31;59.48;99863.63;4999154;28;46626;-76
2021/08/07 08:42:55;;;;;;;;;1.00;1.00;;;;;20.12;59.62;99821.88;4998977;28;45570;-75
2021/08/07 08:45:20;;;;;;;;;1.50;1.00;;;;;20.34;59.32;99856.06;4998672;28;45526;-75
2021/08/07 08:47:46;;;;;;;;;1.00;1.00;;;;;20.28;59.37;99839.47;4998534;28;45503;-76
2021/08/07 08:50:15;;;;;;;;;3.00;1.25;;;;;20.26;59.16;99819.78;5012015;28;46618;-76
2021/08/07 08:52:43;;;;;;;;;2.25;1.00;;;;;20.31;58.94;99834.69;4996006;28;45421;-77
2021/08/07 08:55:11;;;;;;;;;2.00;1.00;;;;;20.20;59.31;99815.78;4997878;28;45394;-79
2021/08/07 08:57:37;;;;;;;;;2.25;1.00;;;;;20.21;59.04;99811.22;5010423;28;45764;-77
2021/08/07 09:00:05;;;;;;;;;4.00;1.00;;;;;20.32;59.20;99825.53;4997318;28;45966;-77
2021/08/07 09:02:31;;;;;;;;;1.00;1.00;;;;;20.23;58.98;99801.97;5002105;28;45449;-79
2021/08/07 09:04:56;;;;;;;;;2.00;1.00;;;;;20.29;58.96;99812.25;5006681;28;45614;-78
2021/08/07 09:07:22;;;;;;;;;3.50;0.25;;;;;20.30;59.61;99824.81;5000897;28;45673;-77
2021/08/07 09:09:53;;;;;;;;;4.25;1.00;;;;;20.49;60.14;99855.72;4997696;28;46861;-76
2021/08/07 09:12:19;;;;;;;;;1.25;1.25;;;;;20.26;60.84;99817.09;4997336;28;46006;-76
2021/08/07 09:14:47;;;;;;;;;1.00;1.00;;;;;20.30;61.63;99821.25;5000729;28;45384;-76
2021/08/07 09:17:17;;;;;;;;;1.25;1.00;;;;;20.41;62.66;99847.41;4997870;28;45711;-75
2021/08/07 09:19:42;;;;;;;;;1.50;1.50;;;;;20.43;62.42;99835.44;5015584;28;45431;-74
2021/08/07 09:22:13;;;;;;;;;3.00;2.00;;;;;20.36;62.61;99821.59;5006161;28;45499;-74
2021/08/07 09:24:58;;;;;;;;;1.75;1.50;;;;;20.37;63.26;99825.13;5014851;28;45654;-74
2021/08/07 09:27:28;;;;;;;;;2.00;1.00;;;;;20.37;63.94;99830.56;5017341;28;45589;-74
2021/08/07 09:29:54;;;;;;;;;2.00;2.00;;;;;20.13;63.39;99788.38;5006501;28;45538;-75
2021/08/07 09:32:19;;;;;;;;;3.50;1.25;;;;;20.10;64.31;99788.63;5005404;28;45421;-74
2021/08/07 09:35:02;;;;;;;;;1.50;1.00;;;;;20.04;64.32;99774.78;5006520;28;45432;-76
2021/08/07 09:37:28;;;;;;;;;3.25;1.50;;;;;20.28;64.49;99812.38;5001505;28;45458;-75
2021/08/07 09:39:53;;;;;;;;;1.00;1.00;;;;;20.13;64.72;99796.50;5015759;28;47293;-75
2021/08/07 09:42:19;;;;;;;;;3.00;1.25;;;;;20.27;64.68;99816.09;5015475;28;45502;-75
2021/08/07 09:44:58;;;;;;;;;1.50;1.50;;;;;20.27;64.78;99811.53;4998630;28;45717;-74
2021/08/07 09:47:23;;;;;;;;;2.00;2.00;;;;;20.25;64.73;99797.28;4997111;28;45486;-74
2021/08/07 09:49:48;;;;;;;;;1.00;1.00;;;;;20.14;64.72;99778.38;4996902;28;45526;-74
2021/08/07 09:52:14;;;;;;;;;1.50;1.50;;;;;20.38;64.58;99817.84;5009736;28;45532;-76
2021/08/07 09:54:43;;;;;;;;;3.00;3.00;;;;;20.24;64.58;99794.69;4958785;28;1107825;-76
2021/08/07 09:57:10;;;;;;;;;0.00;0.00;;;;;20.18;64.83;99791.53;5020479;28;45580;-75
2021/08/07 09:59:49;;;;;;;;;1.00;1.00;;;;;20.28;64.00;99813.25;4999720;28;47447;-75
2021/08/07 10:02:22;;;;;;;;;1.25;1.00;;;;;20.20;64.06;99798.66;5007023;28;45506;-76
2021/08/07 10:04:47;;;;;;;;;0.00;0.00;;;;;20.34;63.37;99817.28;5016397;28;45774;-75
2021/08/07 10:07:13;;;;;;;;;1.00;1.00;;;;;20.12;63.22;99789.34;5007194;28;45919;-76
2021/08/07 10:09:39;;;;;;;;;0.50;0.50;;;;;20.36;62.97;99810.75;4997854;28;46247;-76
2021/08/07 10:12:12;;;;;;;;;0.00;0.00;;;;;20.39;63.18;99814.16;4996076;28;45379;-76
2021/08/07 10:14:39;;;;;;;;;1.00;1.00;;;;;20.20;63.17;99791.41;4997696;28;45488;-77
2021/08/07 10:17:07;;;;;;;;;1.50;1.50;;;;;20.41;64.15;99817.59;4996518;28;45600;-74
2021/08/07 10:19:34;;;;;;;;;0.25;0.00;;;;;20.36;64.09;99799.91;4996203;28;48383;-74
2021/08/07 10:22:01;;;;;;;;;1.00;1.00;;;;;20.22;63.44;99786.69;4997245;28;45479;-75
2021/08/07 10:24:28;;;;;;;;;1.00;0.75;;;;;20.27;63.21;99784.44;4997323;28;45718;-74
2021/08/07 10:26:57;;;;;;;;;0.00;0.00;;;;;20.34;63.65;99799.16;4997691;28;45776;-75
2021/08/07 10:29:47;;;;;;;;;1.75;1.00;;;;;20.38;63.90;99816.03;4997532;28;46139;-73
2021/08/07 10:32:16;;;;;;;;;0.50;0.50;;;;;20.01;63.77;99746.09;4987927;28;45832;-74
2021/08/07 10:34:46;;;;;;;;;0.50;0.50;;;;;20.03;63.90;99763.09;4992916;28;45482;-74
2021/08/07 10:37:14;;;;;;;;;1.25;1.25;;;;;20.10;64.68;99771.53;4994179;28;45819;-75
2021/08/07 10:39:39;;;;;;;;;0.75;0.75;;;;;20.04;64.62;99755.81;4994667;28;47484;-74
2021/08/07 10:42:06;;;;;;;;;1.00;1.00;;;;;20.21;64.67;99774.13;4994667;28;45767;-74
2021/08/07 10:44:33;;;;;;;;;1.00;1.00;;;;;20.14;65.48;99767.53;4996760;28;45686;-74
2021/08/07 10:46:59;;;;;;;;;5.00;2.00;;;;;20.13;64.88;99760.41;4994221;28;45925;-74
2021/08/07 10:49:45;;;;;;;;;1.25;1.00;;;;;20.07;65.55;99742.84;4994523;28;45559;-73
2021/08/07 10:52:22;;;;;;;;;1.00;1.00;;;;;20.25;65.52;99775.59;4996215;28;45733;-73
2021/08/07 10:54:53;;;;;;;;;2.00;1.00;;;;;20.13;65.81;99757.69;4994936;28;45619;-74
2021/08/07 10:57:40;;;;;;;;;1.00;1.00;;;;;20.06;66.00;99749.25;4995076;28;46489;-74
2021/08/07 11:00:14;;;;;;;;;1.00;1.00;;;;;20.26;66.74;99771.88;4996129;28;45533;-74
2021/08/07 11:02:40;;;;;;;;;1.25;1.00;;;;;20.14;66.11;99754.00;4995878;28;45529;-77
2021/08/07 11:05:06;;;;;;;;;1.50;1.50;;;;;20.27;66.54;99768.19;4995872;28;45838;-73
2021/08/07 11:07:31;;;;;;;;;1.75;0.25;;;;;20.29;65.95;99774.31;4995845;28;45545;-74
2021/08/07 11:10:12;;;;;;;;;1.00;1.00;;;;;20.28;65.42;99778.03;4996163;28;46123;-74
2021/08/07 11:12:40;;;;;;;;;1.25;1.25;;;;;20.28;65.17;99775.31;4995290;28;45439;-74
2021/08/07 11:15:07;;;;;;;;;0.75;0.75;;;;;20.20;64.75;99748.06;4995176;28;45518;-74
2021/08/07 11:17:35;;;;;;;;;0.00;0.00;;;;;19.97;64.70;99707.59;5007608;28;45916;-73
2021/08/07 11:20:04;;;;;;;;;1.00;1.00;;;;;20.42;65.00;99768.66;4999032;28;46216;-73
2021/08/07 11:22:32;;;;;;;;;0.00;0.00;;;;;20.46;65.46;99751.13;5001152;28;45451;-73
2021/08/07 11:25:18;;;;;;;;;0.75;0.50;;;;;20.36;64.78;99718.59;4995897;28;45856;-74
2021/08/07 11:30:23;;;;;;;;;2.00;0.00;;;;;20.66;64.37;99735.81;4996002;28;45799;-73
2021/08/07 11:32:57;;;;;;;;;0.50;0.50;;;;;20.70;64.39;99741.84;4995090;28;45392;-73
2021/08/07 11:35:33;;;;;;;;;2.00;2.00;;;;;20.76;64.43;99735.81;5009830;28;45364;-75